Ralph Wenz Field Information

FAA: PNA - ICAO: KPNA

Ralph Wenz Field (Airport) Location

State Wyoming
County Sublette
City Pinedale
Ralph Wenz Field (Airport) is 5 miles southeast of Pinedale, WY.
Latitude 42-47-50.6000N
Longitude 109-48-39.7000W
Elevation 7,096ft

Ralph Wenz Field METARs

METAR KPNA 281410Z AUTO 25003KT 10SM SCT049 00/M02 A3035 RMK AO2
Altimeter 30.35"
Temperature 0.0°C (32.0°F)
Wind 250° at 3KT
Clouds scattered at 4,900ft
Visibility 10.0mi
Time observed: 2021-10-28T14:10:00Z

Ralph Wenz Field (Airport) Details

Status Operational
Activation May 1940
Ownership Public
Usage Public
Chart SALT LAKE CITY
ATC on-site No
Beacon schedule sunset-sunrise
Beacon color clear green

Ralph Wenz Field (Airport) Contacts

Owner TOWN OF PINEDALE
Owner address P. O. BOX 709, PINEDALE, WY 82941
Owner phone 307-367-4136
Manager GEORGE WHITE
Manager address P.O. BOX 50, DEVILS TOWER, WY 82714
Manager phone 307-467-5540

Ralph Wenz Field Radio Frequencies

Ralph Wenz Field (Airport) Radio Frequencies

UNICOM 122.8
Common traffic advisory frequency (CTAF) 122.8